sensor_id;sensor_type;location;lat;lon;timestamp;P1;durP1;ratioP1;P2;durP2;ratioP2
15504;SDS011;7854;52.184;5.942;2022-12-22T00:02:49;31;;;28;;
15504;SDS011;7854;52.184;5.942;2022-12-22T00:03:32;28;;;25;;
15504;SDS011;7854;52.184;5.942;2022-12-22T00:05:46;39;;;29;;
15504;SDS011;7854;52.184;5.942;2022-12-22T00:08:01;29;;;26;;
15504;SDS011;7854;52.184;5.942;2022-12-22T00:10:15;40;;;31;;
15504;SDS011;7854;52.184;5.942;2022-12-22T00:12:30;39;;;31;;
15504;SDS011;7854;52.184;5.942;2022-12-22T00:14:44;32;;;29;;
15504;SDS011;7854;52.184;5.942;2022-12-22T00:16:59;30;;;27;;
15504;SDS011;7854;52.184;5.942;2022-12-22T00:19:13;36;;;31;;
15504;SDS011;7854;52.184;5.942;2022-12-22T00:21:28;33;;;27;;
15504;SDS011;7854;52.184;5.942;2022-12-22T00:23:42;25;;;22;;
15504;SDS011;7854;52.184;5.942;2022-12-22T00:25:57;40;;;28;;
15504;SDS011;7854;52.184;5.942;2022-12-22T00:28:12;30;;;27;;
15504;SDS011;7854;52.184;5.942;2022-12-22T00:30:26;29;;;26;;
15504;SDS011;7854;52.184;5.942;2022-12-22T00:32:40;39;;;30;;
15504;SDS011;7854;52.184;5.942;2022-12-22T00:34:55;34;;;28;;
15504;SDS011;7854;52.184;5.942;2022-12-22T00:37:09;31;;;26;;
15504;SDS011;7854;52.184;5.942;2022-12-22T00:39:23;28;;;26;;
15504;SDS011;7854;52.184;5.942;2022-12-22T00:41:38;39;;;31;;
15504;SDS011;7854;52.184;5.942;2022-12-22T00:43:52;29;;;26;;
15504;SDS011;7854;52.184;5.942;2022-12-22T00:46:07;29;;;26;;
15504;SDS011;7854;52.184;5.942;2022-12-22T00:48:23;32;;;29;;
15504;SDS011;7854;52.184;5.942;2022-12-22T00:50:36;29;;;26;;
15504;SDS011;7854;52.184;5.942;2022-12-22T00:52:50;30;;;25;;
15504;SDS011;7854;52.184;5.942;2022-12-22T00:55:10;32;;;28;;
15504;SDS011;7854;52.184;5.942;2022-12-22T00:59:33;43;;;32;;
15504;SDS011;7854;52.184;5.942;2022-12-22T01:01:48;30;;;26;;
15504;SDS011;7854;52.184;5.942;2022-12-22T01:04:02;30;;;25;;
15504;SDS011;7854;52.184;5.942;2022-12-22T01:06:17;31;;;25;;
15504;SDS011;7854;52.184;5.942;2022-12-22T01:08:32;34;;;29;;
15504;SDS011;7854;52.184;5.942;2022-12-22T01:10:46;29;;;26;;
15504;SDS011;7854;52.184;5.942;2022-12-22T01:13:00;29;;;26;;
15504;SDS011;7854;52.184;5.942;2022-12-22T01:15:16;28;;;26;;
15504;SDS011;7854;52.184;5.942;2022-12-22T01:17:29;29;;;25;;
15504;SDS011;7854;52.184;5.942;2022-12-22T01:19:43;30;;;27;;
15504;SDS011;7854;52.184;5.942;2022-12-22T01:21:57;31;;;27;;
15504;SDS011;7854;52.184;5.942;2022-12-22T01:24:13;29;;;26;;
15504;SDS011;7854;52.184;5.942;2022-12-22T01:26:26;36;;;26;;
15504;SDS011;7854;52.184;5.942;2022-12-22T01:28:41;51;;;29;;
15504;SDS011;7854;52.184;5.942;2022-12-22T01:30:56;31;;;27;;
15504;SDS011;7854;52.184;5.942;2022-12-22T01:33:10;58;;;33;;
15504;SDS011;7854;52.184;5.942;2022-12-22T01:35:25;39;;;27;;
15504;SDS011;7854;52.184;5.942;2022-12-22T01:37:39;30;;;25;;
15504;SDS011;7854;52.184;5.942;2022-12-22T01:39:53;38;;;28;;
15504;SDS011;7854;52.184;5.942;2022-12-22T01:42:09;42;;;29;;
15504;SDS011;7854;52.184;5.942;2022-12-22T01:44:23;43;;;33;;
15504;SDS011;7854;52.184;5.942;2022-12-22T01:46:39;29;;;26;;
15504;SDS011;7854;52.184;5.942;2022-12-22T01:48:51;56;;;31;;
15504;SDS011;7854;52.184;5.942;2022-12-22T01:51:06;41;;;27;;
15504;SDS011;7854;52.184;5.942;2022-12-22T01:53:20;30;;;27;;
15504;SDS011;7854;52.184;5.942;2022-12-22T01:55:34;28;;;25;;
15504;SDS011;7854;52.184;5.942;2022-12-22T01:57:48;45;;;30;;
15504;SDS011;7854;52.184;5.942;2022-12-22T02:00:06;30;;;25;;
15504;SDS011;7854;52.184;5.942;2022-12-22T02:02:17;31;;;28;;
15504;SDS011;7854;52.184;5.942;2022-12-22T02:04:33;34;;;28;;
15504;SDS011;7854;52.184;5.942;2022-12-22T02:06:46;31;;;27;;
15504;SDS011;7854;52.184;5.942;2022-12-22T02:09:04;29;;;26;;
15504;SDS011;7854;52.184;5.942;2022-12-22T02:13:31;28;;;25;;
15504;SDS011;7854;52.184;5.942;2022-12-22T02:15:45;28;;;25;;
15504;SDS011;7854;52.184;5.942;2022-12-22T02:18:00;28;;;24;;
15504;SDS011;7854;52.184;5.942;2022-12-22T02:20:17;37;;;27;;
15504;SDS011;7854;52.184;5.942;2022-12-22T02:22:29;29;;;25;;
15504;SDS011;7854;52.184;5.942;2022-12-22T02:24:42;29;;;26;;
15504;SDS011;7854;52.184;5.942;2022-12-22T02:26:57;27;;;24;;
15504;SDS011;7854;52.184;5.942;2022-12-22T02:29:10;27;;;24;;
15504;SDS011;7854;52.184;5.942;2022-12-22T02:31:25;48;;;33;;
15504;SDS011;7854;52.184;5.942;2022-12-22T02:33:39;32;;;26;;
15504;SDS011;7854;52.184;5.942;2022-12-22T02:35:55;40;;;28;;
15504;SDS011;7854;52.184;5.942;2022-12-22T02:38:09;39;;;29;;
15504;SDS011;7854;52.184;5.942;2022-12-22T02:40:24;26;;;24;;
15504;SDS011;7854;52.184;5.942;2022-12-22T02:42:38;25;;;23;;
15504;SDS011;7854;52.184;5.942;2022-12-22T02:44:53;32;;;26;;
15504;SDS011;7854;52.184;5.942;2022-12-22T02:47:07;41;;;28;;
15504;SDS011;7854;52.184;5.942;2022-12-22T02:49:20;26;;;23;;
15504;SDS011;7854;52.184;5.942;2022-12-22T02:51:35;26;;;24;;
15504;SDS011;7854;52.184;5.942;2022-12-22T02:53:49;26;;;23;;
15504;SDS011;7854;52.184;5.942;2022-12-22T02:56:04;40;;;25;;
15504;SDS011;7854;52.184;5.942;2022-12-22T02:58:18;43;;;29;;
15504;SDS011;7854;52.184;5.942;2022-12-22T03:00:32;24;;;22;;
15504;SDS011;7854;52.184;5.942;2022-12-22T03:02:47;41;;;28;;
15504;SDS011;7854;52.184;5.942;2022-12-22T03:05:02;59;;;33;;
15504;SDS011;7854;52.184;5.942;2022-12-22T03:07:15;32;;;23;;
15504;SDS011;7854;52.184;5.942;2022-12-22T03:09:30;34;;;27;;
15504;SDS011;7854;52.184;5.942;2022-12-22T03:11:44;26;;;24;;
15504;SDS011;7854;52.184;5.942;2022-12-22T03:16:14;25;;;22;;
15504;SDS011;7854;52.184;5.942;2022-12-22T03:18:28;25;;;23;;
15504;SDS011;7854;52.184;5.942;2022-12-22T03:20:42;22;;;20;;
15504;SDS011;7854;52.184;5.942;2022-12-22T03:23:01;24;;;22;;
15504;SDS011;7854;52.184;5.942;2022-12-22T03:25:11;24;;;22;;
15504;SDS011;7854;52.184;5.942;2022-12-22T03:27:26;32;;;22;;
15504;SDS011;7854;52.184;5.942;2022-12-22T03:29:40;52;;;31;;
15504;SDS011;7854;52.184;5.942;2022-12-22T03:31:55;45;;;30;;
15504;SDS011;7854;52.184;5.942;2022-12-22T03:34:09;23;;;21;;
15504;SDS011;7854;52.184;5.942;2022-12-22T03:36:24;40;;;26;;
15504;SDS011;7854;52.184;5.942;2022-12-22T03:38:38;38;;;27;;
15504;SDS011;7854;52.184;5.942;2022-12-22T03:40:53;40;;;28;;
15504;SDS011;7854;52.184;5.942;2022-12-22T03:43:08;30;;;27;;
15504;SDS011;7854;52.184;5.942;2022-12-22T03:45:21;25;;;23;;
15504;SDS011;7854;52.184;5.942;2022-12-22T03:47:36;24;;;22;;
15504;SDS011;7854;52.184;5.942;2022-12-22T03:49:50;34;;;26;;
15504;SDS011;7854;52.184;5.942;2022-12-22T03:52:04;26;;;23;;
15504;SDS011;7854;52.184;5.942;2022-12-22T03:54:20;24;;;22;;
15504;SDS011;7854;52.184;5.942;2022-12-22T03:58:48;27;;;24;;
15504;SDS011;7854;52.184;5.942;2022-12-22T04:01:04;30;;;26;;
15504;SDS011;7854;52.184;5.942;2022-12-22T04:03:17;51;;;28;;
15504;SDS011;7854;52.184;5.942;2022-12-22T04:05:31;28;;;24;;
15504;SDS011;7854;52.184;5.942;2022-12-22T04:07:46;71;;;35;;
15504;SDS011;7854;52.184;5.942;2022-12-22T04:10:00;27;;;23;;
15504;SDS011;7854;52.184;5.942;2022-12-22T04:12:14;26;;;23;;
15504;SDS011;7854;52.184;5.942;2022-12-22T04:14:29;35;;;25;;
15504;SDS011;7854;52.184;5.942;2022-12-22T04:18:57;26;;;23;;
15504;SDS011;7854;52.184;5.942;2022-12-22T04:21:11;46;;;28;;
15504;SDS011;7854;52.184;5.942;2022-12-22T04:23:26;57;;;29;;
15504;SDS011;7854;52.184;5.942;2022-12-22T04:25:39;58;;;27;;
15504;SDS011;7854;52.184;5.942;2022-12-22T04:27:54;32;;;24;;
15504;SDS011;7854;52.184;5.942;2022-12-22T04:30:09;28;;;24;;
15504;SDS011;7854;52.184;5.942;2022-12-22T04:32:22;32;;;24;;
15504;SDS011;7854;52.184;5.942;2022-12-22T04:34:37;107;;;30;;
15504;SDS011;7854;52.184;5.942;2022-12-22T04:36:52;25;;;21;;
15504;SDS011;7854;52.184;5.942;2022-12-22T04:39:06;23;;;21;;
15504;SDS011;7854;52.184;5.942;2022-12-22T04:41:21;42;;;27;;
15504;SDS011;7854;52.184;5.942;2022-12-22T04:43:35;42;;;25;;
15504;SDS011;7854;52.184;5.942;2022-12-22T04:45:51;58;;;28;;
15504;SDS011;7854;52.184;5.942;2022-12-22T04:48:04;33;;;22;;
15504;SDS011;7854;52.184;5.942;2022-12-22T04:50:18;32;;;20;;
15504;SDS011;7854;52.184;5.942;2022-12-22T04:54:47;95;;;33;;
15504;SDS011;7854;52.184;5.942;2022-12-22T04:57:02;42;;;25;;
15504;SDS011;7854;52.184;5.942;2022-12-22T04:59:16;30;;;23;;
15504;SDS011;7854;52.184;5.942;2022-12-22T05:01:30;28;;;21;;
15504;SDS011;7854;52.184;5.942;2022-12-22T05:03:45;25;;;21;;
15504;SDS011;7854;52.184;5.942;2022-12-22T05:05:59;66;;;30;;
15504;SDS011;7854;52.184;5.942;2022-12-22T05:08:14;32;;;22;;
15504;SDS011;7854;52.184;5.942;2022-12-22T05:10:28;94;;;33;;
15504;SDS011;7854;52.184;5.942;2022-12-22T05:12:42;26;;;21;;
15504;SDS011;7854;52.184;5.942;2022-12-22T05:14:57;25;;;21;;
15504;SDS011;7854;52.184;5.942;2022-12-22T05:17:11;69;;;28;;
15504;SDS011;7854;52.184;5.942;2022-12-22T05:19:26;76;;;27;;
15504;SDS011;7854;52.184;5.942;2022-12-22T05:21:40;40;;;26;;
15504;SDS011;7854;52.184;5.942;2022-12-22T05:23:55;83;;;30;;
15504;SDS011;7854;52.184;5.942;2022-12-22T05:26:10;29;;;21;;
15504;SDS011;7854;52.184;5.942;2022-12-22T05:28:24;30;;;22;;
15504;SDS011;7854;52.184;5.942;2022-12-22T05:30:39;34;;;23;;
15504;SDS011;7854;52.184;5.942;2022-12-22T05:32:53;52;;;27;;
15504;SDS011;7854;52.184;5.942;2022-12-22T05:35:07;167;;;36;;
15504;SDS011;7854;52.184;5.942;2022-12-22T05:37:21;66;;;31;;
15504;SDS011;7854;52.184;5.942;2022-12-22T05:39:36;35;;;23;;
15504;SDS011;7854;52.184;5.942;2022-12-22T05:41:51;48;;;23;;
15504;SDS011;7854;52.184;5.942;2022-12-22T05:44:05;41;;;24;;
15504;SDS011;7854;52.184;5.942;2022-12-22T05:46:19;125;;;35;;
15504;SDS011;7854;52.184;5.942;2022-12-22T05:48:34;213;;;33;;
15504;SDS011;7854;52.184;5.942;2022-12-22T05:50:48;44;;;24;;
15504;SDS011;7854;52.184;5.942;2022-12-22T05:53:03;47;;;25;;
15504;SDS011;7854;52.184;5.942;2022-12-22T05:55:17;29;;;21;;
15504;SDS011;7854;52.184;5.942;2022-12-22T05:57:32;51;;;26;;
15504;SDS011;7854;52.184;5.942;2022-12-22T05:59:46;62;;;26;;
15504;SDS011;7854;52.184;5.942;2022-12-22T06:02:00;38;;;24;;
15504;SDS011;7854;52.184;5.942;2022-12-22T06:04:15;37;;;24;;
15504;SDS011;7854;52.184;5.942;2022-12-22T06:06:29;45;;;25;;
15504;SDS011;7854;52.184;5.942;2022-12-22T06:08:44;44;;;27;;
15504;SDS011;7854;52.184;5.942;2022-12-22T06:10:58;47;;;26;;
15504;SDS011;7854;52.184;5.942;2022-12-22T06:13:13;63;;;28;;
15504;SDS011;7854;52.184;5.942;2022-12-22T06:15:27;55;;;27;;
15504;SDS011;7854;52.184;5.942;2022-12-22T06:17:41;34;;;25;;
15504;SDS011;7854;52.184;5.942;2022-12-22T06:19:56;51;;;26;;
15504;SDS011;7854;52.184;5.942;2022-12-22T06:22:11;29;;;22;;
15504;SDS011;7854;52.184;5.942;2022-12-22T06:24:25;34;;;21;;
15504;SDS011;7854;52.184;5.942;2022-12-22T06:26:39;69;;;29;;
15504;SDS011;7854;52.184;5.942;2022-12-22T06:28:54;54;;;24;;
15504;SDS011;7854;52.184;5.942;2022-12-22T06:31:08;32;;;23;;
15504;SDS011;7854;52.184;5.942;2022-12-22T06:33:23;48;;;25;;
15504;SDS011;7854;52.184;5.942;2022-12-22T06:35:37;26;;;21;;
15504;SDS011;7854;52.184;5.942;2022-12-22T06:37:51;34;;;22;;
15504;SDS011;7854;52.184;5.942;2022-12-22T06:40:07;29;;;20;;
15504;SDS011;7854;52.184;5.942;2022-12-22T06:42:20;54;;;26;;
15504;SDS011;7854;52.184;5.942;2022-12-22T06:44:35;42;;;23;;
15504;SDS011;7854;52.184;5.942;2022-12-22T06:46:49;46;;;25;;
15504;SDS011;7854;52.184;5.942;2022-12-22T06:49:03;39;;;22;;
15504;SDS011;7854;52.184;5.942;2022-12-22T06:51:17;24;;;19;;
15504;SDS011;7854;52.184;5.942;2022-12-22T06:53:32;53;;;23;;
15504;SDS011;7854;52.184;5.942;2022-12-22T06:55:46;52;;;23;;
15504;SDS011;7854;52.184;5.942;2022-12-22T06:58:01;23;;;16;;
15504;SDS011;7854;52.184;5.942;2022-12-22T07:00:15;88;;;21;;
15504;SDS011;7854;52.184;5.942;2022-12-22T07:02:29;251;;;26;;
15504;SDS011;7854;52.184;5.942;2022-12-22T07:04:44;36;;;18;;
15504;SDS011;7854;52.184;5.942;2022-12-22T07:06:58;316;;;27;;
15504;SDS011;7854;52.184;5.942;2022-12-22T07:09:13;13;;;12;;
15504;SDS011;7854;52.184;5.942;2022-12-22T07:11:27;37;;;19;;
15504;SDS011;7854;52.184;5.942;2022-12-22T07:13:41;17;;;14;;
15504;SDS011;7854;52.184;5.942;2022-12-22T07:15:56;23;;;17;;
15504;SDS011;7854;52.184;5.942;2022-12-22T07:18:10;60;;;23;;
15504;SDS011;7854;52.184;5.942;2022-12-22T07:20:25;28;;;17;;
15504;SDS011;7854;52.184;5.942;2022-12-22T07:22:39;43;;;22;;
15504;SDS011;7854;52.184;5.942;2022-12-22T07:27:08;44;;;21;;
15504;SDS011;7854;52.184;5.942;2022-12-22T07:29:23;29;;;18;;
15504;SDS011;7854;52.184;5.942;2022-12-22T07:31:37;49;;;23;;
15504;SDS011;7854;52.184;5.942;2022-12-22T07:33:52;36;;;20;;
15504;SDS011;7854;52.184;5.942;2022-12-22T07:36:07;44;;;21;;
15504;SDS011;7854;52.184;5.942;2022-12-22T07:38:20;56;;;25;;
15504;SDS011;7854;52.184;5.942;2022-12-22T07:40:35;42;;;21;;
15504;SDS011;7854;52.184;5.942;2022-12-22T07:42:52;41;;;24;;
15504;SDS011;7854;52.184;5.942;2022-12-22T07:45:04;79;;;29;;
15504;SDS011;7854;52.184;5.942;2022-12-22T07:47:18;56;;;27;;
15504;SDS011;7854;52.184;5.942;2022-12-22T07:49:33;55;;;30;;
15504;SDS011;7854;52.184;5.942;2022-12-22T07:51:47;45;;;26;;
15504;SDS011;7854;52.184;5.942;2022-12-22T07:54:03;64;;;26;;
15504;SDS011;7854;52.184;5.942;2022-12-22T07:56:16;89;;;32;;
15504;SDS011;7854;52.184;5.942;2022-12-22T07:58:31;56;;;29;;
15504;SDS011;7854;52.184;5.942;2022-12-22T08:00:45;48;;;27;;
15504;SDS011;7854;52.184;5.942;2022-12-22T08:02:59;68;;;29;;
15504;SDS011;7854;52.184;5.942;2022-12-22T08:05:14;39;;;26;;
15504;SDS011;7854;52.184;5.942;2022-12-22T08:07:29;127;;;34;;
15504;SDS011;7854;52.184;5.942;2022-12-22T08:09:43;72;;;33;;
15504;SDS011;7854;52.184;5.942;2022-12-22T08:11:57;62;;;31;;
15504;SDS011;7854;52.184;5.942;2022-12-22T08:14:11;106;;;37;;
15504;SDS011;7854;52.184;5.942;2022-12-22T08:16:26;102;;;37;;
15504;SDS011;7854;52.184;5.942;2022-12-22T08:18:41;79;;;33;;
15504;SDS011;7854;52.184;5.942;2022-12-22T08:20:55;70;;;33;;
15504;SDS011;7854;52.184;5.942;2022-12-22T08:23:10;65;;;32;;
15504;SDS011;7854;52.184;5.942;2022-12-22T08:25:24;96;;;38;;
15504;SDS011;7854;52.184;5.942;2022-12-22T08:27:40;61;;;29;;
15504;SDS011;7854;52.184;5.942;2022-12-22T08:29:53;69;;;35;;
15504;SDS011;7854;52.184;5.942;2022-12-22T08:32:08;105;;;35;;
15504;SDS011;7854;52.184;5.942;2022-12-22T08:34:22;111;;;42;;
15504;SDS011;7854;52.184;5.942;2022-12-22T08:36:37;80;;;37;;
15504;SDS011;7854;52.184;5.942;2022-12-22T08:38:51;79;;;37;;
15504;SDS011;7854;52.184;5.942;2022-12-22T08:41:06;111;;;43;;
15504;SDS011;7854;52.184;5.942;2022-12-22T08:43:20;117;;;44;;
15504;SDS011;7854;52.184;5.942;2022-12-22T08:45:34;78;;;37;;
15504;SDS011;7854;52.184;5.942;2022-12-22T08:47:48;90;;;38;;
15504;SDS011;7854;52.184;5.942;2022-12-22T08:50:03;99;;;41;;
15504;SDS011;7854;52.184;5.942;2022-12-22T08:52:17;72;;;35;;
15504;SDS011;7854;52.184;5.942;2022-12-22T08:54:32;77;;;36;;
15504;SDS011;7854;52.184;5.942;2022-12-22T08:59:00;78;;;36;;
15504;SDS011;7854;52.184;5.942;2022-12-22T09:01:16;110;;;42;;
15504;SDS011;7854;52.184;5.942;2022-12-22T09:03:30;102;;;40;;
15504;SDS011;7854;52.184;5.942;2022-12-22T09:05:44;110;;;43;;
15504;SDS011;7854;52.184;5.942;2022-12-22T09:07:58;95;;;40;;
15504;SDS011;7854;52.184;5.942;2022-12-22T09:10:12;81;;;36;;
15504;SDS011;7854;52.184;5.942;2022-12-22T09:12:26;74;;;37;;
15504;SDS011;7854;52.184;5.942;2022-12-22T09:14:40;88;;;37;;
15504;SDS011;7854;52.184;5.942;2022-12-22T09:16:55;76;;;34;;
15504;SDS011;7854;52.184;5.942;2022-12-22T09:19:09;65;;;29;;
15504;SDS011;7854;52.184;5.942;2022-12-22T09:21:24;99;;;38;;
15504;SDS011;7854;52.184;5.942;2022-12-22T09:23:38;78;;;35;;
15504;SDS011;7854;52.184;5.942;2022-12-22T09:25:53;66;;;32;;
15504;SDS011;7854;52.184;5.942;2022-12-22T09:28:07;74;;;33;;
15504;SDS011;7854;52.184;5.942;2022-12-22T09:30:22;73;;;34;;
15504;SDS011;7854;52.184;5.942;2022-12-22T09:32:36;63;;;31;;
15504;SDS011;7854;52.184;5.942;2022-12-22T09:34:51;65;;;30;;
15504;SDS011;7854;52.184;5.942;2022-12-22T09:37:05;55;;;28;;
15504;SDS011;7854;52.184;5.942;2022-12-22T09:39:20;61;;;29;;
15504;SDS011;7854;52.184;5.942;2022-12-22T09:43:48;63;;;26;;
15504;SDS011;7854;52.184;5.942;2022-12-22T09:46:03;79;;;34;;
15504;SDS011;7854;52.184;5.942;2022-12-22T09:48:17;79;;;30;;
15504;SDS011;7854;52.184;5.942;2022-12-22T09:50:31;65;;;28;;
15504;SDS011;7854;52.184;5.942;2022-12-22T09:52:46;77;;;29;;
15504;SDS011;7854;52.184;5.942;2022-12-22T09:55:01;68;;;25;;
15504;SDS011;7854;52.184;5.942;2022-12-22T09:59:30;66;;;26;;
15504;SDS011;7854;52.184;5.942;2022-12-22T10:01:49;61;;;25;;
15504;SDS011;7854;52.184;5.942;2022-12-22T10:04:00;61;;;28;;
15504;SDS011;7854;52.184;5.942;2022-12-22T10:08:28;80;;;32;;
15504;SDS011;7854;52.184;5.942;2022-12-22T10:10:41;50;;;28;;
15504;SDS011;7854;52.184;5.942;2022-12-22T10:13:02;71;;;30;;
15504;SDS011;7854;52.184;5.942;2022-12-22T10:15:22;65;;;31;;
15504;SDS011;7854;52.184;5.942;2022-12-22T10:17:43;73;;;30;;
15504;SDS011;7854;52.184;5.942;2022-12-22T10:20:06;59;;;30;;
15504;SDS011;7854;52.184;5.942;2022-12-22T10:22:30;52;;;25;;
15504;SDS011;7854;52.184;5.942;2022-12-22T10:24:44;55;;;26;;
15504;SDS011;7854;52.184;5.942;2022-12-22T10:27:04;49;;;24;;
15504;SDS011;7854;52.184;5.942;2022-12-22T10:31:33;48;;;25;;
15504;SDS011;7854;52.184;5.942;2022-12-22T10:33:48;38;;;24;;
15504;SDS011;7854;52.184;5.942;2022-12-22T10:36:00;70;;;24;;
15504;SDS011;7854;52.184;5.942;2022-12-22T10:38:28;42;;;19;;
15504;SDS011;7854;52.184;5.942;2022-12-22T10:40:55;44;;;20;;
15504;SDS011;7854;52.184;5.942;2022-12-22T10:43:22;50;;;18;;
15504;SDS011;7854;52.184;5.942;2022-12-22T10:45:49;37;;;19;;
15504;SDS011;7854;52.184;5.942;2022-12-22T10:48:02;46;;;20;;
15504;SDS011;7854;52.184;5.942;2022-12-22T10:50:23;30;;;15;;
15504;SDS011;7854;52.184;5.942;2022-12-22T10:52:48;31;;;14;;
15504;SDS011;7854;52.184;5.942;2022-12-22T10:55:20;34;;;16;;
15504;SDS011;7854;52.184;5.942;2022-12-22T10:57:27;31;;;15;;
15504;SDS011;7854;52.184;5.942;2022-12-22T10:59:46;26;;;14;;
15504;SDS011;7854;52.184;5.942;2022-12-22T11:04:21;22;;;14;;
15504;SDS011;7854;52.184;5.942;2022-12-22T11:08:48;23;;;14;;
15504;SDS011;7854;52.184;5.942;2022-12-22T11:11:04;23;;;13;;
15504;SDS011;7854;52.184;5.942;2022-12-22T11:13:20;17;;;13;;
15504;SDS011;7854;52.184;5.942;2022-12-22T11:15:33;19;;;12;;
15504;SDS011;7854;52.184;5.942;2022-12-22T11:17:46;27;;;12;;
15504;SDS011;7854;52.184;5.942;2022-12-22T11:20:02;17;;;11;;
15504;SDS011;7854;52.184;5.942;2022-12-22T11:22:19;13;;;11;;
15504;SDS011;7854;52.184;5.942;2022-12-22T11:24:31;26;;;13;;
15504;SDS011;7854;52.184;5.942;2022-12-22T11:26:44;12;;;11;;
15504;SDS011;7854;52.184;5.942;2022-12-22T11:29:03;17;;;11;;
15504;SDS011;7854;52.184;5.942;2022-12-22T11:31:16;12;;;11;;
15504;SDS011;7854;52.184;5.942;2022-12-22T11:33:29;14;;;12;;
15504;SDS011;7854;52.184;5.942;2022-12-22T11:35:45;17;;;11;;
15504;SDS011;7854;52.184;5.942;2022-12-22T11:37:59;11;;;10;;
15504;SDS011;7854;52.184;5.942;2022-12-22T11:40:13;10;;;8;;
15504;SDS011;7854;52.184;5.942;2022-12-22T11:42:32;12;;;10;;
15504;SDS011;7854;52.184;5.942;2022-12-22T11:44:40;10;;;9;;
15504;SDS011;7854;52.184;5.942;2022-12-22T11:46:55;11;;;9;;
15504;SDS011;7854;52.184;5.942;2022-12-22T11:49:13;10;;;8;;
15504;SDS011;7854;52.184;5.942;2022-12-22T11:51:25;16;;;9;;
15504;SDS011;7854;52.184;5.942;2022-12-22T11:53:42;12;;;8;;
15504;SDS011;7854;52.184;5.942;2022-12-22T11:55:55;11;;;10;;
15504;SDS011;7854;52.184;5.942;2022-12-22T12:00:19;10;;;9;;
15504;SDS011;7854;52.184;5.942;2022-12-22T12:04:55;8;;;7;;
15504;SDS011;7854;52.184;5.942;2022-12-22T12:07:04;17;;;8;;
15504;SDS011;7854;52.184;5.942;2022-12-22T12:09:20;9;;;8;;
15504;SDS011;7854;52.184;5.942;2022-12-22T12:11:33;8;;;7;;
15504;SDS011;7854;52.184;5.942;2022-12-22T12:13:48;8;;;7;;
15504;SDS011;7854;52.184;5.942;2022-12-22T12:16:02;12;;;9;;
15504;SDS011;7854;52.184;5.942;2022-12-22T12:18:28;15;;;8;;
15504;SDS011;7854;52.184;5.942;2022-12-22T12:20:32;7;;;7;;
15504;SDS011;7854;52.184;5.942;2022-12-22T12:22:47;9;;;8;;
15504;SDS011;7854;52.184;5.942;2022-12-22T12:24:58;22;;;8;;
15504;SDS011;7854;52.184;5.942;2022-12-22T12:27:17;13;;;7;;
15504;SDS011;7854;52.184;5.942;2022-12-22T12:29:27;11;;;8;;
15504;SDS011;7854;52.184;5.942;2022-12-22T12:31:42;13;;;9;;
15504;SDS011;7854;52.184;5.942;2022-12-22T12:33:57;9;;;8;;
15504;SDS011;7854;52.184;5.942;2022-12-22T12:38:27;8;;;7;;
15504;SDS011;7854;52.184;5.942;2022-12-22T12:40:47;21;;;8;;
15504;SDS011;7854;52.184;5.942;2022-12-22T12:42:54;10;;;8;;
15504;SDS011;7854;52.184;5.942;2022-12-22T12:45:30;17;;;10;;
15504;SDS011;7854;52.184;5.942;2022-12-22T12:47:24;12;;;9;;
15504;SDS011;7854;52.184;5.942;2022-12-22T12:49:57;15;;;11;;
15504;SDS011;7854;52.184;5.942;2022-12-22T12:54:32;14;;;11;;
15504;SDS011;7854;52.184;5.942;2022-12-22T12:56:24;18;;;12;;
15504;SDS011;7854;52.184;5.942;2022-12-22T12:58:51;17;;;13;;
15504;SDS011;7854;52.184;5.942;2022-12-22T13:00:49;18;;;13;;
15504;SDS011;7854;52.184;5.942;2022-12-22T13:03:04;18;;;14;;
15504;SDS011;7854;52.184;5.942;2022-12-22T13:10:05;14;;;12;;
15504;SDS011;7854;52.184;5.942;2022-12-22T13:12:31;14;;;13;;
15504;SDS011;7854;52.184;5.942;2022-12-22T13:14:53;21;;;13;;
15504;SDS011;7854;52.184;5.942;2022-12-22T13:16:32;21;;;14;;
15504;SDS011;7854;52.184;5.942;2022-12-22T13:18:45;21;;;15;;
15504;SDS011;7854;52.184;5.942;2022-12-22T13:21:00;22;;;15;;
15504;SDS011;7854;52.184;5.942;2022-12-22T13:23:14;13;;;12;;
15504;SDS011;7854;52.184;5.942;2022-12-22T13:25:32;17;;;13;;
15504;SDS011;7854;52.184;5.942;2022-12-22T13:27:43;16;;;14;;
15504;SDS011;7854;52.184;5.942;2022-12-22T13:29:57;19;;;12;;
15504;SDS011;7854;52.184;5.942;2022-12-22T13:32:19;16;;;12;;
15504;SDS011;7854;52.184;5.942;2022-12-22T13:34:30;30;;;11;;
15504;SDS011;7854;52.184;5.942;2022-12-22T13:36:39;15;;;11;;
15504;SDS011;7854;52.184;5.942;2022-12-22T13:38:57;11;;;10;;
15504;SDS011;7854;52.184;5.942;2022-12-22T13:41:11;12;;;10;;
15504;SDS011;7854;52.184;5.942;2022-12-22T13:43:22;14;;;12;;
15504;SDS011;7854;52.184;5.942;2022-12-22T13:45:37;10;;;9;;
15504;SDS011;7854;52.184;5.942;2022-12-22T13:47:51;19;;;10;;
15504;SDS011;7854;52.184;5.942;2022-12-22T13:50:07;18;;;10;;
15504;SDS011;7854;52.184;5.942;2022-12-22T13:54:34;10;;;9;;
15504;SDS011;7854;52.184;5.942;2022-12-22T13:56:49;17;;;10;;
15504;SDS011;7854;52.184;5.942;2022-12-22T13:59:03;12;;;10;;
15504;SDS011;7854;52.184;5.942;2022-12-22T14:01:18;10;;;9;;
15504;SDS011;7854;52.184;5.942;2022-12-22T14:03:32;11;;;10;;
15504;SDS011;7854;52.184;5.942;2022-12-22T14:05:46;12;;;9;;
15504;SDS011;7854;52.184;5.942;2022-12-22T14:08:01;11;;;10;;
15504;SDS011;7854;52.184;5.942;2022-12-22T14:10:23;14;;;9;;
15504;SDS011;7854;52.184;5.942;2022-12-22T14:12:29;9;;;8;;
15504;SDS011;7854;52.184;5.942;2022-12-22T14:14:45;19;;;9;;
15504;SDS011;7854;52.184;5.942;2022-12-22T14:16:59;10;;;9;;
15504;SDS011;7854;52.184;5.942;2022-12-22T14:19:13;11;;;10;;
15504;SDS011;7854;52.184;5.942;2022-12-22T14:21:27;10;;;9;;
15504;SDS011;7854;52.184;5.942;2022-12-22T14:23:42;14;;;12;;
15504;SDS011;7854;52.184;5.942;2022-12-22T14:25:56;24;;;14;;
15504;SDS011;7854;52.184;5.942;2022-12-22T14:28:13;12;;;11;;
15504;SDS011;7854;52.184;5.942;2022-12-22T14:32:39;18;;;15;;
15504;SDS011;7854;52.184;5.942;2022-12-22T14:34:52;16;;;13;;
15504;SDS011;7854;52.184;5.942;2022-12-22T14:37:07;20;;;16;;
15504;SDS011;7854;52.184;5.942;2022-12-22T14:39:22;23;;;16;;
15504;SDS011;7854;52.184;5.942;2022-12-22T14:41:37;19;;;15;;
15504;SDS011;7854;52.184;5.942;2022-12-22T14:43:50;17;;;14;;
15504;SDS011;7854;52.184;5.942;2022-12-22T14:46:05;28;;;17;;
15504;SDS011;7854;52.184;5.942;2022-12-22T14:48:20;18;;;15;;
15504;SDS011;7854;52.184;5.942;2022-12-22T14:50:33;17;;;15;;
15504;SDS011;7854;52.184;5.942;2022-12-22T14:52:48;21;;;18;;
15504;SDS011;7854;52.184;5.942;2022-12-22T14:55:03;20;;;17;;
15504;SDS011;7854;52.184;5.942;2022-12-22T14:57:18;30;;;16;;
15504;SDS011;7854;52.184;5.942;2022-12-22T14:59:31;21;;;17;;
15504;SDS011;7854;52.184;5.942;2022-12-22T15:01:54;18;;;16;;
15504;SDS011;7854;52.184;5.942;2022-12-22T15:04:01;21;;;19;;
15504;SDS011;7854;52.184;5.942;2022-12-22T15:06:23;19;;;17;;
15504;SDS011;7854;52.184;5.942;2022-12-22T15:08:36;27;;;18;;
15504;SDS011;7854;52.184;5.942;2022-12-22T15:10:43;27;;;19;;
15504;SDS011;7854;52.184;5.942;2022-12-22T15:12:58;21;;;19;;
15504;SDS011;7854;52.184;5.942;2022-12-22T15:15:13;25;;;19;;
15504;SDS011;7854;52.184;5.942;2022-12-22T15:17:26;22;;;18;;
15504;SDS011;7854;52.184;5.942;2022-12-22T15:19:41;23;;;19;;
15504;SDS011;7854;52.184;5.942;2022-12-22T15:21:54;28;;;20;;
15504;SDS011;7854;52.184;5.942;2022-12-22T15:24:09;29;;;21;;
15504;SDS011;7854;52.184;5.942;2022-12-22T15:26:23;37;;;25;;
15504;SDS011;7854;52.184;5.942;2022-12-22T15:28:37;37;;;24;;